Αρχική σελίδα
METAR-TAF:

METAR-TAF

Αεροδρόμια :

Στίλγουοτερ, Οκλαχόμα, Ηνωμένες Πολιτείες Αμερικής

γεωγραφικό πλάτος: 36-09-44N, γεωγραφικό μήκος: 097-05-21W, υψόμετρο: 300 μ

Παρών καιρός

Η αναφορά έγινε 17 λεπτά πριν, στις 23:53 UTC
Άνεμος 9 kt από Α
Θερμοκρασία 30°C
Υγρασία 52%
Πίεση 1013 hPa
Ορατότητα: 16.1 χλμ
Καθαρός ουρανός

METAR: KSWO 222353Z 08009KT 10SM CLR 30/19 A2990 RMK AO2 SLP112 T03000189 10328 20283 56008

Χρόνος: 19:10 (00:10 UTC)


TAF: λείπει

Μετεωρολογικές αναφορές και προγνώσεις για περισσότερα από 4000 αεροδρόμια (δελτία METAR και TAF).

Οι διαθέσιμοι σταθμοί απεικονίζονται στο χάρτη με κίτρινες και κόκκινες κουκκίδες.

Μετακινήστε το ποντίκι πάνω από τις κουκκίδες για να δείτε το όνομα του σταθμού.

Στη συνέχεια, κάντε κλικ για να δείτε τις μετεωρολογικές αναφορές και τις προγνώσεις καιρού.

Για να αλλάξετε το χάρτη: κάντε κλικ στα πράσινα κουμπιά με τον μαύρο σταυρό για να ζουμάρετε, στο πράσινο κουμπί με την παύλα για να αφαιρέσετε το ζουμ ή στα πράσινα βέλη για να αντιπαραβάλλετε χάρτες.


METAR-TAF: